sensor_id;sensor_type;location;lat;lon;timestamp;temperature;humidity
21387;DHT22;10854;45.922;6.716;2022-07-21T00:00:41;24.70;69.90
21387;DHT22;10854;45.922;6.716;2022-07-21T00:03:10;24.70;69.60
21387;DHT22;10854;45.922;6.716;2022-07-21T00:05:38;24.70;69.50
21387;DHT22;10854;45.922;6.716;2022-07-21T00:08:07;24.70;69.50
21387;DHT22;10854;45.922;6.716;2022-07-21T00:10:35;24.70;69.50
21387;DHT22;10854;45.922;6.716;2022-07-21T00:13:04;24.60;69.60
21387;DHT22;10854;45.922;6.716;2022-07-21T00:15:34;24.60;69.30
21387;DHT22;10854;45.922;6.716;2022-07-21T00:18:04;24.60;69.40
21387;DHT22;10854;45.922;6.716;2022-07-21T00:20:33;24.50;69.20
21387;DHT22;10854;45.922;6.716;2022-07-21T00:23:02;24.50;69.20
21387;DHT22;10854;45.922;6.716;2022-07-21T00:25:32;24.50;69.20
21387;DHT22;10854;45.922;6.716;2022-07-21T00:28:02;24.50;69.10
21387;DHT22;10854;45.922;6.716;2022-07-21T00:30:33;24.50;69.00
21387;DHT22;10854;45.922;6.716;2022-07-21T00:33:02;24.40;69.00
21387;DHT22;10854;45.922;6.716;2022-07-21T00:35:32;24.40;69.20
21387;DHT22;10854;45.922;6.716;2022-07-21T00:38:02;24.40;68.90
21387;DHT22;10854;45.922;6.716;2022-07-21T00:40:31;24.40;68.60
21387;DHT22;10854;45.922;6.716;2022-07-21T00:43:00;24.40;68.60
21387;DHT22;10854;45.922;6.716;2022-07-21T00:45:29;24.40;68.80
21387;DHT22;10854;45.922;6.716;2022-07-21T00:47:58;24.40;69.20
21387;DHT22;10854;45.922;6.716;2022-07-21T00:50:28;24.30;69.00
21387;DHT22;10854;45.922;6.716;2022-07-21T00:52:56;24.30;68.60
21387;DHT22;10854;45.922;6.716;2022-07-21T00:55:25;24.30;68.40
21387;DHT22;10854;45.922;6.716;2022-07-21T00:57:54;24.30;68.50
21387;DHT22;10854;45.922;6.716;2022-07-21T01:00:26;24.20;68.50
21387;DHT22;10854;45.922;6.716;2022-07-21T01:02:57;24.20;68.70
21387;DHT22;10854;45.922;6.716;2022-07-21T01:05:26;24.20;68.60
21387;DHT22;10854;45.922;6.716;2022-07-21T01:07:56;24.20;68.10
21387;DHT22;10854;45.922;6.716;2022-07-21T01:10:32;24.20;67.50
21387;DHT22;10854;45.922;6.716;2022-07-21T01:13:01;24.20;66.80
21387;DHT22;10854;45.922;6.716;2022-07-21T01:15:30;24.20;66.60
21387;DHT22;10854;45.922;6.716;2022-07-21T01:17:59;24.20;66.30
21387;DHT22;10854;45.922;6.716;2022-07-21T01:20:33;24.20;65.70
21387;DHT22;10854;45.922;6.716;2022-07-21T01:23:04;24.10;65.60
21387;DHT22;10854;45.922;6.716;2022-07-21T01:25:34;24.10;65.60
21387;DHT22;10854;45.922;6.716;2022-07-21T01:28:02;24.10;65.60
21387;DHT22;10854;45.922;6.716;2022-07-21T01:30:31;24.10;65.30
21387;DHT22;10854;45.922;6.716;2022-07-21T01:33:00;24.10;65.30
21387;DHT22;10854;45.922;6.716;2022-07-21T01:35:29;24.10;65.10
21387;DHT22;10854;45.922;6.716;2022-07-21T01:37:58;24.00;64.80
21387;DHT22;10854;45.922;6.716;2022-07-21T01:40:27;24.00;64.70
21387;DHT22;10854;45.922;6.716;2022-07-21T01:43:14;24.00;64.60
21387;DHT22;10854;45.922;6.716;2022-07-21T01:45:43;23.90;64.50
21387;DHT22;10854;45.922;6.716;2022-07-21T01:48:12;23.90;64.50
21387;DHT22;10854;45.922;6.716;2022-07-21T01:50:40;23.90;64.50
21387;DHT22;10854;45.922;6.716;2022-07-21T01:53:09;23.80;64.60
21387;DHT22;10854;45.922;6.716;2022-07-21T01:55:38;23.80;64.70
21387;DHT22;10854;45.922;6.716;2022-07-21T01:58:06;23.80;64.80
21387;DHT22;10854;45.922;6.716;2022-07-21T02:00:35;23.70;64.80
21387;DHT22;10854;45.922;6.716;2022-07-21T02:03:06;23.70;65.10
21387;DHT22;10854;45.922;6.716;2022-07-21T02:05:35;23.70;65.10
21387;DHT22;10854;45.922;6.716;2022-07-21T02:08:04;23.60;65.00
21387;DHT22;10854;45.922;6.716;2022-07-21T02:10:33;23.60;65.30
21387;DHT22;10854;45.922;6.716;2022-07-21T02:13:02;23.60;65.60
21387;DHT22;10854;45.922;6.716;2022-07-21T02:15:32;23.50;66.00
21387;DHT22;10854;45.922;6.716;2022-07-21T02:18:00;23.40;66.10
21387;DHT22;10854;45.922;6.716;2022-07-21T02:20:29;23.40;66.40
21387;DHT22;10854;45.922;6.716;2022-07-21T02:22:58;23.40;66.70
21387;DHT22;10854;45.922;6.716;2022-07-21T02:25:26;23.30;66.90
21387;DHT22;10854;45.922;6.716;2022-07-21T02:27:55;23.30;67.20
21387;DHT22;10854;45.922;6.716;2022-07-21T02:30:23;23.20;67.30
21387;DHT22;10854;45.922;6.716;2022-07-21T02:32:52;23.20;67.50
21387;DHT22;10854;45.922;6.716;2022-07-21T02:35:21;23.20;67.70
21387;DHT22;10854;45.922;6.716;2022-07-21T02:37:50;23.20;67.90
21387;DHT22;10854;45.922;6.716;2022-07-21T02:40:19;23.10;67.80
21387;DHT22;10854;45.922;6.716;2022-07-21T02:42:47;23.10;68.40
21387;DHT22;10854;45.922;6.716;2022-07-21T02:45:16;23.10;68.70
21387;DHT22;10854;45.922;6.716;2022-07-21T02:48:03;23.00;69.80
21387;DHT22;10854;45.922;6.716;2022-07-21T02:50:34;23.00;69.10
21387;DHT22;10854;45.922;6.716;2022-07-21T02:53:08;23.00;69.10
21387;DHT22;10854;45.922;6.716;2022-07-21T02:55:38;22.90;69.20
21387;DHT22;10854;45.922;6.716;2022-07-21T02:58:25;22.90;69.30
21387;DHT22;10854;45.922;6.716;2022-07-21T03:01:04;22.90;69.50
21387;DHT22;10854;45.922;6.716;2022-07-21T03:03:36;23.00;69.80
21387;DHT22;10854;45.922;6.716;2022-07-21T03:06:05;22.90;69.80
21387;DHT22;10854;45.922;6.716;2022-07-21T03:08:34;22.90;69.90
21387;DHT22;10854;45.922;6.716;2022-07-21T03:11:02;22.90;70.10
21387;DHT22;10854;45.922;6.716;2022-07-21T03:13:32;22.90;71.10
21387;DHT22;10854;45.922;6.716;2022-07-21T03:16:01;22.90;70.70
21387;DHT22;10854;45.922;6.716;2022-07-21T03:18:29;22.80;70.60
21387;DHT22;10854;45.922;6.716;2022-07-21T03:20:58;22.80;70.90
21387;DHT22;10854;45.922;6.716;2022-07-21T03:23:27;22.80;71.10
21387;DHT22;10854;45.922;6.716;2022-07-21T03:25:55;22.70;71.30
21387;DHT22;10854;45.922;6.716;2022-07-21T03:28:24;22.70;71.60
21387;DHT22;10854;45.922;6.716;2022-07-21T03:30:52;22.60;71.50
21387;DHT22;10854;45.922;6.716;2022-07-21T03:33:21;22.60;71.70
21387;DHT22;10854;45.922;6.716;2022-07-21T03:35:50;22.60;72.10
21387;DHT22;10854;45.922;6.716;2022-07-21T03:38:18;22.50;72.40
21387;DHT22;10854;45.922;6.716;2022-07-21T03:40:47;22.50;72.70
21387;DHT22;10854;45.922;6.716;2022-07-21T03:43:16;22.40;73.00
21387;DHT22;10854;45.922;6.716;2022-07-21T03:45:45;22.40;73.40
21387;DHT22;10854;45.922;6.716;2022-07-21T03:48:14;22.30;73.40
21387;DHT22;10854;45.922;6.716;2022-07-21T03:50:43;22.30;73.80
21387;DHT22;10854;45.922;6.716;2022-07-21T03:53:11;22.20;74.10
21387;DHT22;10854;45.922;6.716;2022-07-21T03:55:40;22.20;74.40
21387;DHT22;10854;45.922;6.716;2022-07-21T03:58:08;22.20;74.50
21387;DHT22;10854;45.922;6.716;2022-07-21T04:00:39;22.20;74.40
21387;DHT22;10854;45.922;6.716;2022-07-21T04:03:09;22.20;74.50
21387;DHT22;10854;45.922;6.716;2022-07-21T04:05:39;22.20;74.60
21387;DHT22;10854;45.922;6.716;2022-07-21T04:08:09;22.20;74.50
21387;DHT22;10854;45.922;6.716;2022-07-21T04:10:41;22.20;74.50
21387;DHT22;10854;45.922;6.716;2022-07-21T04:13:14;22.20;74.40
21387;DHT22;10854;45.922;6.716;2022-07-21T04:15:42;22.20;74.40
21387;DHT22;10854;45.922;6.716;2022-07-21T04:18:11;22.30;74.40
21387;DHT22;10854;45.922;6.716;2022-07-21T04:20:40;22.30;74.20
21387;DHT22;10854;45.922;6.716;2022-07-21T04:23:09;22.40;74.30
21387;DHT22;10854;45.922;6.716;2022-07-21T04:25:37;22.30;74.20
21387;DHT22;10854;45.922;6.716;2022-07-21T04:28:07;22.40;74.30
21387;DHT22;10854;45.922;6.716;2022-07-21T04:30:36;22.40;74.40
21387;DHT22;10854;45.922;6.716;2022-07-21T04:33:05;22.40;74.60
21387;DHT22;10854;45.922;6.716;2022-07-21T04:35:34;22.40;74.70
21387;DHT22;10854;45.922;6.716;2022-07-21T04:38:03;22.40;74.70
21387;DHT22;10854;45.922;6.716;2022-07-21T04:40:32;22.40;74.80
21387;DHT22;10854;45.922;6.716;2022-07-21T04:43:01;22.40;74.80
21387;DHT22;10854;45.922;6.716;2022-07-21T04:45:29;22.40;74.60
21387;DHT22;10854;45.922;6.716;2022-07-21T04:47:58;22.40;74.40
21387;DHT22;10854;45.922;6.716;2022-07-21T04:50:27;22.40;74.30
21387;DHT22;10854;45.922;6.716;2022-07-21T04:52:56;22.40;74.30
21387;DHT22;10854;45.922;6.716;2022-07-21T04:55:26;22.40;74.30
21387;DHT22;10854;45.922;6.716;2022-07-21T04:57:55;22.40;74.40
21387;DHT22;10854;45.922;6.716;2022-07-21T05:00:26;22.40;74.60
21387;DHT22;10854;45.922;6.716;2022-07-21T05:02:55;22.40;74.60
21387;DHT22;10854;45.922;6.716;2022-07-21T05:05:24;22.40;74.70
21387;DHT22;10854;45.922;6.716;2022-07-21T05:07:52;22.40;74.70
21387;DHT22;10854;45.922;6.716;2022-07-21T05:10:21;22.50;74.70
21387;DHT22;10854;45.922;6.716;2022-07-21T05:12:50;22.50;74.70
21387;DHT22;10854;45.922;6.716;2022-07-21T05:15:18;22.60;74.60
21387;DHT22;10854;45.922;6.716;2022-07-21T05:17:47;22.60;74.50
21387;DHT22;10854;45.922;6.716;2022-07-21T05:20:16;22.60;74.40
21387;DHT22;10854;45.922;6.716;2022-07-21T05:22:45;22.60;74.30
21387;DHT22;10854;45.922;6.716;2022-07-21T05:25:13;22.70;74.10
21387;DHT22;10854;45.922;6.716;2022-07-21T05:27:42;22.80;73.90
21387;DHT22;10854;45.922;6.716;2022-07-21T05:30:11;22.90;73.90
21387;DHT22;10854;45.922;6.716;2022-07-21T05:32:40;22.90;73.60
21387;DHT22;10854;45.922;6.716;2022-07-21T05:35:13;23.00;73.60
21387;DHT22;10854;45.922;6.716;2022-07-21T05:37:42;23.00;73.60
21387;DHT22;10854;45.922;6.716;2022-07-21T05:40:12;23.00;73.40
21387;DHT22;10854;45.922;6.716;2022-07-21T05:42:40;23.10;73.30
21387;DHT22;10854;45.922;6.716;2022-07-21T05:45:10;23.20;73.10
21387;DHT22;10854;45.922;6.716;2022-07-21T05:47:39;23.40;73.00
21387;DHT22;10854;45.922;6.716;2022-07-21T05:50:08;23.60;72.50
21387;DHT22;10854;45.922;6.716;2022-07-21T05:52:37;23.80;72.00
21387;DHT22;10854;45.922;6.716;2022-07-21T05:55:06;23.90;71.60
21387;DHT22;10854;45.922;6.716;2022-07-21T05:57:35;23.90;71.20
21387;DHT22;10854;45.922;6.716;2022-07-21T06:00:06;24.00;70.90
21387;DHT22;10854;45.922;6.716;2022-07-21T06:02:35;24.10;70.70
21387;DHT22;10854;45.922;6.716;2022-07-21T06:05:04;24.20;70.30
21387;DHT22;10854;45.922;6.716;2022-07-21T06:07:35;24.40;69.90
21387;DHT22;10854;45.922;6.716;2022-07-21T06:10:04;24.80;69.20
21387;DHT22;10854;45.922;6.716;2022-07-21T06:12:34;25.30;68.10
21387;DHT22;10854;45.922;6.716;2022-07-21T06:15:03;25.70;67.10
21387;DHT22;10854;45.922;6.716;2022-07-21T06:17:31;25.90;66.10
21387;DHT22;10854;45.922;6.716;2022-07-21T06:20:07;26.20;65.10
21387;DHT22;10854;45.922;6.716;2022-07-21T06:22:36;26.40;64.40
21387;DHT22;10854;45.922;6.716;2022-07-21T06:25:05;26.50;63.50
21387;DHT22;10854;45.922;6.716;2022-07-21T06:27:34;26.60;63.30
21387;DHT22;10854;45.922;6.716;2022-07-21T06:30:04;26.60;63.30
21387;DHT22;10854;45.922;6.716;2022-07-21T06:32:32;26.60;63.10
21387;DHT22;10854;45.922;6.716;2022-07-21T06:35:01;26.50;63.10
21387;DHT22;10854;45.922;6.716;2022-07-21T06:37:29;26.30;63.40
21387;DHT22;10854;45.922;6.716;2022-07-21T06:39:58;26.10;64.00
21387;DHT22;10854;45.922;6.716;2022-07-21T06:42:27;26.00;64.00
21387;DHT22;10854;45.922;6.716;2022-07-21T06:44:57;26.00;64.00
21387;DHT22;10854;45.922;6.716;2022-07-21T06:47:27;26.10;64.10
21387;DHT22;10854;45.922;6.716;2022-07-21T06:49:57;26.40;63.80
21387;DHT22;10854;45.922;6.716;2022-07-21T06:52:32;27.00;62.70
21387;DHT22;10854;45.922;6.716;2022-07-21T06:55:05;27.90;61.20
21387;DHT22;10854;45.922;6.716;2022-07-21T06:57:35;28.70;59.40
21387;DHT22;10854;45.922;6.716;2022-07-21T07:00:05;29.40;57.90
21387;DHT22;10854;45.922;6.716;2022-07-21T07:02:35;29.80;56.90
21387;DHT22;10854;45.922;6.716;2022-07-21T07:05:04;30.30;55.60
21387;DHT22;10854;45.922;6.716;2022-07-21T07:07:33;30.70;54.50
21387;DHT22;10854;45.922;6.716;2022-07-21T07:10:03;30.90;53.30
21387;DHT22;10854;45.922;6.716;2022-07-21T07:12:32;30.90;52.80
21387;DHT22;10854;45.922;6.716;2022-07-21T07:15:21;31.10;52.50
21387;DHT22;10854;45.922;6.716;2022-07-21T07:17:51;31.70;51.90
21387;DHT22;10854;45.922;6.716;2022-07-21T07:20:20;32.00;50.70
21387;DHT22;10854;45.922;6.716;2022-07-21T07:22:49;32.10;50.30
21387;DHT22;10854;45.922;6.716;2022-07-21T07:25:18;32.50;49.80
21387;DHT22;10854;45.922;6.716;2022-07-21T07:27:49;32.70;48.70
21387;DHT22;10854;45.922;6.716;2022-07-21T07:30:18;32.40;48.70
21387;DHT22;10854;45.922;6.716;2022-07-21T07:32:47;32.00;49.20
21387;DHT22;10854;45.922;6.716;2022-07-21T07:35:16;31.90;49.70
21387;DHT22;10854;45.922;6.716;2022-07-21T07:37:45;32.00;49.60
21387;DHT22;10854;45.922;6.716;2022-07-21T07:40:19;32.10;49.20
21387;DHT22;10854;45.922;6.716;2022-07-21T07:42:48;32.10;48.70
21387;DHT22;10854;45.922;6.716;2022-07-21T07:45:17;32.10;48.30
21387;DHT22;10854;45.922;6.716;2022-07-21T07:47:45;31.80;48.50
21387;DHT22;10854;45.922;6.716;2022-07-21T07:50:14;31.90;48.60
21387;DHT22;10854;45.922;6.716;2022-07-21T07:52:44;32.10;48.60
21387;DHT22;10854;45.922;6.716;2022-07-21T07:55:13;32.30;49.00
21387;DHT22;10854;45.922;6.716;2022-07-21T07:57:42;32.50;48.10
21387;DHT22;10854;45.922;6.716;2022-07-21T08:00:16;32.50;47.90
21387;DHT22;10854;45.922;6.716;2022-07-21T08:03:05;32.40;47.80
21387;DHT22;10854;45.922;6.716;2022-07-21T08:05:33;32.50;47.90
21387;DHT22;10854;45.922;6.716;2022-07-21T08:08:02;32.80;47.50
21387;DHT22;10854;45.922;6.716;2022-07-21T08:10:31;33.20;46.90
21387;DHT22;10854;45.922;6.716;2022-07-21T08:13:08;33.50;46.50
21387;DHT22;10854;45.922;6.716;2022-07-21T08:15:37;33.50;46.00
21387;DHT22;10854;45.922;6.716;2022-07-21T08:18:06;33.50;46.00
21387;DHT22;10854;45.922;6.716;2022-07-21T08:20:35;33.50;45.80
21387;DHT22;10854;45.922;6.716;2022-07-21T08:23:05;33.00;46.10
21387;DHT22;10854;45.922;6.716;2022-07-21T08:25:34;32.70;46.60
21387;DHT22;10854;45.922;6.716;2022-07-21T08:28:03;32.50;47.00
21387;DHT22;10854;45.922;6.716;2022-07-21T08:30:32;32.30;47.40
21387;DHT22;10854;45.922;6.716;2022-07-21T08:33:00;32.10;47.20
21387;DHT22;10854;45.922;6.716;2022-07-21T08:35:30;32.00;47.40
21387;DHT22;10854;45.922;6.716;2022-07-21T08:38:02;31.90;47.70
21387;DHT22;10854;45.922;6.716;2022-07-21T08:40:34;31.80;48.20
21387;DHT22;10854;45.922;6.716;2022-07-21T08:43:04;31.80;48.10
21387;DHT22;10854;45.922;6.716;2022-07-21T08:45:34;32.10;47.80
21387;DHT22;10854;45.922;6.716;2022-07-21T08:48:03;32.40;47.30
21387;DHT22;10854;45.922;6.716;2022-07-21T08:50:34;32.40;47.10
21387;DHT22;10854;45.922;6.716;2022-07-21T08:53:04;32.50;47.00
21387;DHT22;10854;45.922;6.716;2022-07-21T08:55:37;32.90;46.70
21387;DHT22;10854;45.922;6.716;2022-07-21T08:58:10;33.10;46.00
21387;DHT22;10854;45.922;6.716;2022-07-21T09:00:43;33.50;45.90
21387;DHT22;10854;45.922;6.716;2022-07-21T09:03:16;34.10;45.10
21387;DHT22;10854;45.922;6.716;2022-07-21T09:06:07;34.40;44.20
21387;DHT22;10854;45.922;6.716;2022-07-21T09:08:50;34.70;43.70
21387;DHT22;10854;45.922;6.716;2022-07-21T09:11:28;35.10;43.10
21387;DHT22;10854;45.922;6.716;2022-07-21T09:14:10;35.20;42.80
21387;DHT22;10854;45.922;6.716;2022-07-21T09:16:41;35.00;42.60
21387;DHT22;10854;45.922;6.716;2022-07-21T09:19:32;35.20;42.50
21387;DHT22;10854;45.922;6.716;2022-07-21T09:22:03;35.30;42.20
21387;DHT22;10854;45.922;6.716;2022-07-21T09:24:35;35.50;42.30
21387;DHT22;10854;45.922;6.716;2022-07-21T09:29:47;36.00;41.30
21387;DHT22;10854;45.922;6.716;2022-07-21T09:32:20;36.00;41.20
21387;DHT22;10854;45.922;6.716;2022-07-21T09:34:52;35.60;41.30
21387;DHT22;10854;45.922;6.716;2022-07-21T09:37:22;35.40;41.60
21387;DHT22;10854;45.922;6.716;2022-07-21T09:40:02;35.30;41.70
21387;DHT22;10854;45.922;6.716;2022-07-21T09:42:41;35.10;41.90
21387;DHT22;10854;45.922;6.716;2022-07-21T09:45:13;35.20;41.70
21387;DHT22;10854;45.922;6.716;2022-07-21T09:47:42;35.50;41.60
21387;DHT22;10854;45.922;6.716;2022-07-21T09:50:13;35.50;41.50
21387;DHT22;10854;45.922;6.716;2022-07-21T09:52:53;35.60;41.70
21387;DHT22;10854;45.922;6.716;2022-07-21T09:55:22;36.10;41.30
21387;DHT22;10854;45.922;6.716;2022-07-21T09:57:51;36.60;40.50
21387;DHT22;10854;45.922;6.716;2022-07-21T10:00:20;37.00;40.00
21387;DHT22;10854;45.922;6.716;2022-07-21T10:02:49;37.50;39.70
21387;DHT22;10854;45.922;6.716;2022-07-21T10:05:20;38.00;38.90
21387;DHT22;10854;45.922;6.716;2022-07-21T10:07:51;38.50;37.90
21387;DHT22;10854;45.922;6.716;2022-07-21T10:10:20;38.40;37.70
21387;DHT22;10854;45.922;6.716;2022-07-21T10:12:53;38.30;37.60
21387;DHT22;10854;45.922;6.716;2022-07-21T10:15:21;38.10;37.60
21387;DHT22;10854;45.922;6.716;2022-07-21T10:17:51;37.70;37.90
21387;DHT22;10854;45.922;6.716;2022-07-21T10:20:31;37.40;38.30
21387;DHT22;10854;45.922;6.716;2022-07-21T10:23:14;36.90;38.60
21387;DHT22;10854;45.922;6.716;2022-07-21T10:25:47;36.80;39.20
21387;DHT22;10854;45.922;6.716;2022-07-21T10:28:21;36.80;39.50
21387;DHT22;10854;45.922;6.716;2022-07-21T10:30:55;37.00;39.20
21387;DHT22;10854;45.922;6.716;2022-07-21T10:41:48;37.40;38.30
21387;DHT22;10854;45.922;6.716;2022-07-21T10:44:40;37.40;38.80
21387;DHT22;10854;45.922;6.716;2022-07-21T10:47:21;37.40;38.80
21387;DHT22;10854;45.922;6.716;2022-07-21T10:57:42;36.70;39.60
21387;DHT22;10854;45.922;6.716;2022-07-21T11:03:04;37.00;39.20
21387;DHT22;10854;45.922;6.716;2022-07-21T11:08:45;37.20;38.80
21387;DHT22;10854;45.922;6.716;2022-07-21T11:11:16;37.60;38.50
21387;DHT22;10854;45.922;6.716;2022-07-21T11:14:10;37.60;38.40
21387;DHT22;10854;45.922;6.716;2022-07-21T11:19:34;37.70;38.50
21387;DHT22;10854;45.922;6.716;2022-07-21T11:22:29;37.90;37.60
21387;DHT22;10854;45.922;6.716;2022-07-21T11:25:03;37.60;37.80
21387;DHT22;10854;45.922;6.716;2022-07-21T11:27:36;37.70;38.20
21387;DHT22;10854;45.922;6.716;2022-07-21T11:30:08;37.90;37.80
21387;DHT22;10854;45.922;6.716;2022-07-21T11:32:37;38.30;37.50
21387;DHT22;10854;45.922;6.716;2022-07-21T11:41:22;38.20;36.10
21387;DHT22;10854;45.922;6.716;2022-07-21T11:43:54;37.50;37.00
21387;DHT22;10854;45.922;6.716;2022-07-21T11:46:27;37.40;37.70
21387;DHT22;10854;45.922;6.716;2022-07-21T11:49:05;37.50;37.80
21387;DHT22;10854;45.922;6.716;2022-07-21T11:51:54;37.40;37.70
21387;DHT22;10854;45.922;6.716;2022-07-21T11:54:34;37.30;37.70
21387;DHT22;10854;45.922;6.716;2022-07-21T11:57:06;37.50;37.70
21387;DHT22;10854;45.922;6.716;2022-07-21T11:59:38;37.60;37.70
21387;DHT22;10854;45.922;6.716;2022-07-21T12:02:16;37.70;37.30
21387;DHT22;10854;45.922;6.716;2022-07-21T12:04:52;37.70;36.90
21387;DHT22;10854;45.922;6.716;2022-07-21T12:07:43;37.70;36.90
21387;DHT22;10854;45.922;6.716;2022-07-21T12:10:22;37.70;37.00
21387;DHT22;10854;45.922;6.716;2022-07-21T12:13:02;37.70;36.80
21387;DHT22;10854;45.922;6.716;2022-07-21T12:15:34;37.50;36.50
21387;DHT22;10854;45.922;6.716;2022-07-21T12:18:08;37.40;36.70
21387;DHT22;10854;45.922;6.716;2022-07-21T12:20:40;37.40;36.70
21387;DHT22;10854;45.922;6.716;2022-07-21T12:23:21;37.50;36.60
21387;DHT22;10854;45.922;6.716;2022-07-21T12:25:54;37.70;36.60
21387;DHT22;10854;45.922;6.716;2022-07-21T12:28:46;37.80;36.60
21387;DHT22;10854;45.922;6.716;2022-07-21T12:31:20;37.80;36.60
21387;DHT22;10854;45.922;6.716;2022-07-21T12:33:51;37.80;36.60
21387;DHT22;10854;45.922;6.716;2022-07-21T12:36:42;38.00;36.40
21387;DHT22;10854;45.922;6.716;2022-07-21T12:39:22;38.40;36.10
21387;DHT22;10854;45.922;6.716;2022-07-21T12:42:31;38.60;35.50
21387;DHT22;10854;45.922;6.716;2022-07-21T12:45:00;38.50;35.30
21387;DHT22;10854;45.922;6.716;2022-07-21T12:47:29;38.30;35.00
21387;DHT22;10854;45.922;6.716;2022-07-21T12:50:03;38.10;34.80
21387;DHT22;10854;45.922;6.716;2022-07-21T12:52:37;38.00;34.60
21387;DHT22;10854;45.922;6.716;2022-07-21T12:55:07;37.90;34.90
21387;DHT22;10854;45.922;6.716;2022-07-21T12:57:35;37.80;35.10
21387;DHT22;10854;45.922;6.716;2022-07-21T13:00:05;37.70;35.10
21387;DHT22;10854;45.922;6.716;2022-07-21T13:02:55;37.60;35.30
21387;DHT22;10854;45.922;6.716;2022-07-21T13:05:25;37.60;35.50
21387;DHT22;10854;45.922;6.716;2022-07-21T13:07:54;37.50;35.40
21387;DHT22;10854;45.922;6.716;2022-07-21T13:10:22;37.30;35.60
21387;DHT22;10854;45.922;6.716;2022-07-21T13:12:51;37.40;35.60
21387;DHT22;10854;45.922;6.716;2022-07-21T13:15:20;37.70;35.60
21387;DHT22;10854;45.922;6.716;2022-07-21T13:17:49;37.90;35.20
21387;DHT22;10854;45.922;6.716;2022-07-21T13:20:18;38.20;34.40
21387;DHT22;10854;45.922;6.716;2022-07-21T13:22:47;38.40;34.30
21387;DHT22;10854;45.922;6.716;2022-07-21T13:25:17;38.40;34.50
21387;DHT22;10854;45.922;6.716;2022-07-21T13:27:45;38.50;34.30
21387;DHT22;10854;45.922;6.716;2022-07-21T13:30:14;38.70;34.20
21387;DHT22;10854;45.922;6.716;2022-07-21T13:32:43;38.50;33.80
21387;DHT22;10854;45.922;6.716;2022-07-21T13:35:12;38.40;33.90
21387;DHT22;10854;45.922;6.716;2022-07-21T13:37:52;38.20;33.80
21387;DHT22;10854;45.922;6.716;2022-07-21T13:40:22;38.00;34.00
21387;DHT22;10854;45.922;6.716;2022-07-21T13:43:11;37.90;34.70
21387;DHT22;10854;45.922;6.716;2022-07-21T13:46:00;37.90;34.50
21387;DHT22;10854;45.922;6.716;2022-07-21T13:48:28;37.70;34.60
21387;DHT22;10854;45.922;6.716;2022-07-21T13:50:57;37.80;34.80
21387;DHT22;10854;45.922;6.716;2022-07-21T13:53:26;37.70;34.70
21387;DHT22;10854;45.922;6.716;2022-07-21T13:55:54;37.70;34.70
21387;DHT22;10854;45.922;6.716;2022-07-21T13:58:23;37.60;34.50
21387;DHT22;10854;45.922;6.716;2022-07-21T14:00:51;37.60;34.40
21387;DHT22;10854;45.922;6.716;2022-07-21T14:03:22;37.40;34.90
21387;DHT22;10854;45.922;6.716;2022-07-21T14:05:51;37.50;35.30
21387;DHT22;10854;45.922;6.716;2022-07-21T14:08:19;37.40;35.50
21387;DHT22;10854;45.922;6.716;2022-07-21T14:10:48;37.10;35.60
21387;DHT22;10854;45.922;6.716;2022-07-21T14:13:16;37.10;35.20
21387;DHT22;10854;45.922;6.716;2022-07-21T14:15:45;37.20;35.30
21387;DHT22;10854;45.922;6.716;2022-07-21T14:18:14;37.20;35.30
21387;DHT22;10854;45.922;6.716;2022-07-21T14:20:42;37.40;34.80
21387;DHT22;10854;45.922;6.716;2022-07-21T14:23:11;37.40;34.80
21387;DHT22;10854;45.922;6.716;2022-07-21T14:25:39;37.40;34.90
21387;DHT22;10854;45.922;6.716;2022-07-21T14:28:07;37.50;34.80
21387;DHT22;10854;45.922;6.716;2022-07-21T14:30:36;37.50;34.60
21387;DHT22;10854;45.922;6.716;2022-07-21T14:33:05;37.60;34.60
21387;DHT22;10854;45.922;6.716;2022-07-21T14:35:33;37.50;34.30
21387;DHT22;10854;45.922;6.716;2022-07-21T14:38:04;37.00;34.70
21387;DHT22;10854;45.922;6.716;2022-07-21T14:40:33;36.50;35.30
21387;DHT22;10854;45.922;6.716;2022-07-21T14:43:03;36.20;35.70
21387;DHT22;10854;45.922;6.716;2022-07-21T14:45:32;35.90;35.70
21387;DHT22;10854;45.922;6.716;2022-07-21T14:48:08;35.70;35.50
21387;DHT22;10854;45.922;6.716;2022-07-21T14:50:37;35.60;36.00
21387;DHT22;10854;45.922;6.716;2022-07-21T14:53:05;35.60;36.50
21387;DHT22;10854;45.922;6.716;2022-07-21T14:55:34;35.70;36.60
21387;DHT22;10854;45.922;6.716;2022-07-21T14:58:05;35.70;36.60
21387;DHT22;10854;45.922;6.716;2022-07-21T15:00:34;35.70;36.50
21387;DHT22;10854;45.922;6.716;2022-07-21T15:03:03;35.70;36.60
21387;DHT22;10854;45.922;6.716;2022-07-21T15:05:31;35.70;36.30
21387;DHT22;10854;45.922;6.716;2022-07-21T15:08:00;36.00;35.80
21387;DHT22;10854;45.922;6.716;2022-07-21T15:10:28;36.30;35.30
21387;DHT22;10854;45.922;6.716;2022-07-21T15:12:57;36.50;34.90
21387;DHT22;10854;45.922;6.716;2022-07-21T15:15:27;36.70;34.60
21387;DHT22;10854;45.922;6.716;2022-07-21T15:17:55;36.80;34.10
21387;DHT22;10854;45.922;6.716;2022-07-21T15:20:24;36.90;33.90
21387;DHT22;10854;45.922;6.716;2022-07-21T15:22:53;37.00;33.80
21387;DHT22;10854;45.922;6.716;2022-07-21T15:25:21;37.00;33.80
21387;DHT22;10854;45.922;6.716;2022-07-21T15:27:51;37.00;33.90
21387;DHT22;10854;45.922;6.716;2022-07-21T15:30:20;37.00;34.10
21387;DHT22;10854;45.922;6.716;2022-07-21T15:32:48;37.00;34.10
21387;DHT22;10854;45.922;6.716;2022-07-21T15:35:17;37.10;33.80
21387;DHT22;10854;45.922;6.716;2022-07-21T15:37:45;37.10;33.60
21387;DHT22;10854;45.922;6.716;2022-07-21T15:40:14;37.20;33.70
21387;DHT22;10854;45.922;6.716;2022-07-21T15:42:44;37.00;33.50
21387;DHT22;10854;45.922;6.716;2022-07-21T15:45:13;37.00;33.80
21387;DHT22;10854;45.922;6.716;2022-07-21T15:47:41;37.00;34.00
21387;DHT22;10854;45.922;6.716;2022-07-21T15:50:10;37.00;33.90
21387;DHT22;10854;45.922;6.716;2022-07-21T15:52:40;37.00;33.80
21387;DHT22;10854;45.922;6.716;2022-07-21T15:55:10;36.90;33.70
21387;DHT22;10854;45.922;6.716;2022-07-21T15:57:40;36.70;33.80
21387;DHT22;10854;45.922;6.716;2022-07-21T16:00:10;36.50;34.00
21387;DHT22;10854;45.922;6.716;2022-07-21T16:02:40;36.30;34.60
21387;DHT22;10854;45.922;6.716;2022-07-21T16:05:19;36.10;34.60
21387;DHT22;10854;45.922;6.716;2022-07-21T16:07:50;36.00;34.70
21387;DHT22;10854;45.922;6.716;2022-07-21T16:10:21;36.00;34.70
21387;DHT22;10854;45.922;6.716;2022-07-21T16:12:51;36.10;34.60
21387;DHT22;10854;45.922;6.716;2022-07-21T16:15:24;36.10;34.60
21387;DHT22;10854;45.922;6.716;2022-07-21T16:17:53;36.10;34.50
21387;DHT22;10854;45.922;6.716;2022-07-21T16:20:22;36.10;34.60
21387;DHT22;10854;45.922;6.716;2022-07-21T16:22:51;36.30;34.40
21387;DHT22;10854;45.922;6.716;2022-07-21T16:25:21;36.20;34.30
21387;DHT22;10854;45.922;6.716;2022-07-21T16:27:50;36.00;34.60